createdAt,value
2018-08-25T00:02:21.013Z,11.40
2018-08-25T00:04:49.577Z,11.40
2018-08-25T00:07:18.099Z,11.40
2018-08-25T00:09:46.657Z,11.40
2018-08-25T00:12:15.177Z,11.40
2018-08-25T00:14:43.737Z,11.40
2018-08-25T00:17:12.301Z,11.30
2018-08-25T00:19:40.861Z,11.30
2018-08-25T00:22:09.417Z,11.30
2018-08-25T00:24:37.937Z,11.30
2018-08-25T00:27:06.814Z,11.30
2018-08-25T00:29:35.324Z,11.30
2018-08-25T00:32:03.894Z,11.40
2018-08-25T00:34:32.405Z,11.40
2018-08-25T00:37:00.969Z,11.40
2018-08-25T00:39:29.457Z,11.50
2018-08-25T00:41:57.996Z,11.50
2018-08-25T00:44:26.629Z,11.50
2018-08-25T00:46:55.181Z,11.50
2018-08-25T00:49:23.763Z,11.40
2018-08-25T00:51:52.410Z,11.40
2018-08-25T00:54:20.958Z,11.30
2018-08-25T00:56:49.470Z,11.30
2018-08-25T00:59:18.031Z,11.30
2018-08-25T01:01:46.641Z,11.30
2018-08-25T01:04:15.201Z,11.30
2018-08-25T01:06:43.772Z,11.20
2018-08-25T01:09:12.333Z,11.20
2018-08-25T01:11:40.841Z,11.20
2018-08-25T01:14:09.373Z,11.20
2018-08-25T01:16:37.926Z,11.20
2018-08-25T01:19:07.598Z,11.10
2018-08-25T01:21:36.167Z,11.10
2018-08-25T01:24:04.675Z,11.20
2018-08-25T01:26:33.261Z,11.20
2018-08-25T01:29:01.777Z,11.20
2018-08-25T01:31:30.393Z,11.30
2018-08-25T01:34:00.484Z,11.30
2018-08-25T01:36:29.054Z,11.30
2018-08-25T01:38:57.604Z,11.30
2018-08-25T01:41:26.172Z,11.30
2018-08-25T01:43:54.718Z,11.30
2018-08-25T01:46:23.205Z,11.30
2018-08-25T01:48:51.768Z,11.30
2018-08-25T01:51:20.325Z,11.30
2018-08-25T01:53:48.821Z,11.30
2018-08-25T01:56:17.433Z,11.30
2018-08-25T01:58:45.995Z,11.30
2018-08-25T02:01:14.549Z,11.40
2018-08-25T02:03:43.066Z,11.40
2018-08-25T02:06:11.622Z,11.40
2018-08-25T02:08:40.120Z,11.40
2018-08-25T02:11:08.670Z,11.40
2018-08-25T02:13:37.216Z,11.30
2018-08-25T02:16:06.317Z,11.40
2018-08-25T02:18:34.898Z,11.30
2018-08-25T02:21:03.442Z,11.30
2018-08-25T02:23:31.950Z,11.30
2018-08-25T02:26:00.510Z,11.30
2018-08-25T02:28:29.025Z,11.20
2018-08-25T02:30:57.567Z,11.10
2018-08-25T02:33:26.049Z,11.00
2018-08-25T02:35:54.580Z,11.00
2018-08-25T02:38:23.097Z,10.90
2018-08-25T02:40:51.631Z,10.90
2018-08-25T02:43:20.148Z,10.90
2018-08-25T02:45:48.700Z,10.90
2018-08-25T02:48:17.213Z,10.90
2018-08-25T02:50:45.729Z,10.80
2018-08-25T02:53:14.277Z,10.80
2018-08-25T02:55:42.822Z,10.80
2018-08-25T02:58:11.533Z,10.80
2018-08-25T03:00:40.058Z,10.70
2018-08-25T03:03:08.549Z,10.70
2018-08-25T03:05:37.131Z,10.70
2018-08-25T03:08:05.880Z,10.70
2018-08-25T03:10:34.377Z,10.70
2018-08-25T03:13:02.924Z,10.70
2018-08-25T03:15:31.466Z,10.70
2018-08-25T03:18:00.028Z,10.70
2018-08-25T03:20:28.535Z,10.70
2018-08-25T03:22:57.065Z,10.70
2018-08-25T03:25:25.559Z,10.70
2018-08-25T03:27:54.130Z,10.70
2018-08-25T03:30:22.673Z,10.70
2018-08-25T03:32:51.206Z,10.70
2018-08-25T03:35:19.745Z,10.70
2018-08-25T03:37:48.298Z,10.70
2018-08-25T03:40:16.958Z,10.70
2018-08-25T03:42:45.467Z,10.70
2018-08-25T03:45:14.021Z,10.80
2018-08-25T03:47:42.500Z,10.80
2018-08-25T03:50:11.030Z,10.80
2018-08-25T03:52:39.766Z,10.80
2018-08-25T03:55:08.325Z,10.90
2018-08-25T03:57:36.856Z,11.00
2018-08-25T04:00:06.473Z,11.00
2018-08-25T04:02:35.032Z,11.00
2018-08-25T04:05:03.533Z,11.10
2018-08-25T04:07:32.057Z,11.00
2018-08-25T04:10:00.557Z,11.00
2018-08-25T04:12:29.103Z,10.90
2018-08-25T04:14:57.722Z,10.90
2018-08-25T04:17:26.241Z,10.90
2018-08-25T04:19:54.764Z,10.80
2018-08-25T04:22:23.377Z,10.80
2018-08-25T04:24:51.876Z,10.70
2018-08-25T04:27:20.371Z,10.60
2018-08-25T04:29:48.916Z,10.50
2018-08-25T04:32:17.485Z,10.50
2018-08-25T04:34:46.015Z,10.40
2018-08-25T04:37:14.537Z,10.40
2018-08-25T04:39:43.099Z,10.30
2018-08-25T04:42:11.610Z,10.30
2018-08-25T04:44:40.145Z,10.30
2018-08-25T04:47:08.638Z,10.30
2018-08-25T04:49:37.188Z,10.30
2018-08-25T04:52:05.887Z,10.20
2018-08-25T04:54:34.436Z,10.20
2018-08-25T04:57:03.048Z,10.30
2018-08-25T04:59:31.597Z,10.30
2018-08-25T05:02:00.216Z,10.20
2018-08-25T05:04:28.709Z,10.20
2018-08-25T05:06:57.219Z,10.20
2018-08-25T05:09:26.521Z,10.20
2018-08-25T05:11:55.066Z,10.20
2018-08-25T05:14:23.772Z,10.20
2018-08-25T05:16:52.327Z,10.20
2018-08-25T05:19:20.839Z,10.20
2018-08-25T05:21:49.495Z,10.10
2018-08-25T05:24:17.994Z,10.20
2018-08-25T05:26:46.593Z,10.10
2018-08-25T05:29:15.101Z,10.20
2018-08-25T05:31:43.665Z,10.20
2018-08-25T05:34:12.234Z,10.20
2018-08-25T05:36:40.825Z,10.20
2018-08-25T05:39:10.457Z,10.20
2018-08-25T05:41:39.192Z,10.20
2018-08-25T05:44:07.791Z,10.20
2018-08-25T05:46:36.296Z,10.20
2018-08-25T05:49:04.860Z,10.30
2018-08-25T05:51:33.357Z,10.30
2018-08-25T05:54:01.915Z,10.30
2018-08-25T05:56:30.441Z,10.30
2018-08-25T05:58:59.021Z,10.30
2018-08-25T06:01:27.673Z,10.30
2018-08-25T06:03:56.225Z,10.30
2018-08-25T06:06:24.771Z,10.40
2018-08-25T06:08:53.300Z,10.50
2018-08-25T06:11:21.812Z,10.50
2018-08-25T06:13:50.377Z,10.60
2018-08-25T06:16:18.914Z,10.70
2018-08-25T06:18:47.461Z,10.80
2018-08-25T06:21:16.037Z,10.80
2018-08-25T06:23:44.610Z,10.90
2018-08-25T06:26:13.165Z,10.90
2018-08-25T06:28:41.666Z,10.90
2018-08-25T06:31:10.254Z,10.90
2018-08-25T06:33:39.077Z,10.90
2018-08-25T06:36:07.725Z,10.90
2018-08-25T06:38:36.221Z,11.00
2018-08-25T06:41:04.769Z,11.10
2018-08-25T06:43:33.380Z,11.20
2018-08-25T06:46:08.881Z,11.30
2018-08-25T06:48:39.061Z,11.30
2018-08-25T06:51:07.646Z,11.40
2018-08-25T06:53:36.745Z,11.40
2018-08-25T06:56:05.408Z,11.40
2018-08-25T06:58:33.945Z,11.50
2018-08-25T07:01:02.757Z,11.60
2018-08-25T07:03:32.647Z,11.60
2018-08-25T07:06:09.033Z,11.70
2018-08-25T07:08:37.612Z,11.70
2018-08-25T07:11:06.302Z,11.60
2018-08-25T07:13:34.887Z,11.70
2018-08-25T07:16:03.430Z,11.60
2018-08-25T07:18:31.986Z,11.60
2018-08-25T07:21:00.486Z,11.50
2018-08-25T07:23:29.014Z,11.50
2018-08-25T07:25:57.664Z,11.50
2018-08-25T07:28:26.127Z,11.60
2018-08-25T07:30:54.668Z,11.60
2018-08-25T07:33:23.182Z,11.60
2018-08-25T07:35:51.751Z,11.60
2018-08-25T07:38:20.279Z,11.60
2018-08-25T07:40:48.880Z,11.60
2018-08-25T07:43:17.456Z,11.60
2018-08-25T07:45:45.996Z,11.60
2018-08-25T07:48:14.518Z,11.60
2018-08-25T07:50:43.058Z,11.60
2018-08-25T07:53:11.622Z,11.60
2018-08-25T07:55:40.131Z,11.60
2018-08-25T07:58:08.701Z,11.60
2018-08-25T08:00:37.291Z,11.60
2018-08-25T08:03:12.392Z,11.60
2018-08-25T08:05:41.001Z,11.60
2018-08-25T08:08:09.514Z,11.70
2018-08-25T08:10:38.069Z,11.80
2018-08-25T08:13:06.628Z,11.80
2018-08-25T08:15:35.204Z,11.90
2018-08-25T08:18:03.804Z,11.90
2018-08-25T08:20:36.977Z,11.90
2018-08-25T08:23:05.977Z,12.00
2018-08-25T08:25:34.778Z,12.00
2018-08-25T08:28:03.318Z,12.00
2018-08-25T08:30:31.874Z,12.10
2018-08-25T08:33:00.446Z,12.00
2018-08-25T08:35:28.998Z,12.10
2018-08-25T08:37:57.752Z,12.10
2018-08-25T08:40:26.317Z,12.10
2018-08-25T08:42:54.913Z,12.10
2018-08-25T08:45:23.495Z,12.10
2018-08-25T08:47:52.066Z,12.10
2018-08-25T08:50:20.650Z,12.10
2018-08-25T08:52:49.231Z,12.20
2018-08-25T08:55:17.742Z,12.20
2018-08-25T08:57:46.281Z,12.30
2018-08-25T09:00:14.781Z,12.30
2018-08-25T09:02:43.319Z,12.40
2018-08-25T09:05:11.840Z,12.60
2018-08-25T09:07:40.409Z,12.90
2018-08-25T09:10:08.930Z,13.10
2018-08-25T09:12:37.633Z,13.20
2018-08-25T09:15:06.220Z,13.30
2018-08-25T09:17:34.787Z,13.40
2018-08-25T09:20:03.395Z,13.50
2018-08-25T09:22:31.928Z,13.60
2018-08-25T09:25:00.478Z,13.70
2018-08-25T09:27:29.132Z,13.70
2018-08-25T09:29:57.631Z,13.80
2018-08-25T09:32:26.218Z,13.90
2018-08-25T09:34:54.777Z,14.00
2018-08-25T09:37:23.356Z,14.20
2018-08-25T09:39:51.886Z,14.30
2018-08-25T09:42:20.436Z,14.30
2018-08-25T09:44:48.988Z,14.40
2018-08-25T09:47:17.609Z,14.40
2018-08-25T09:49:46.189Z,14.20
2018-08-25T09:52:14.699Z,14.20
2018-08-25T09:54:43.281Z,14.00
2018-08-25T09:57:11.828Z,13.80
2018-08-25T09:59:40.461Z,13.80
2018-08-25T10:02:09.017Z,13.60
2018-08-25T10:04:37.582Z,13.70
2018-08-25T10:07:06.317Z,14.00
2018-08-25T10:09:34.866Z,14.40
2018-08-25T10:12:03.486Z,14.70
2018-08-25T10:14:32.107Z,14.90
2018-08-25T10:17:00.651Z,15.00
2018-08-25T10:19:29.413Z,15.10
2018-08-25T10:21:57.936Z,15.10
2018-08-25T10:24:26.487Z,15.20
2018-08-25T10:26:55.085Z,15.20
2018-08-25T10:29:23.584Z,15.20
2018-08-25T10:31:52.141Z,15.10
2018-08-25T10:34:20.695Z,15.00
2018-08-25T10:36:49.312Z,14.90
2018-08-25T10:39:18.862Z,15.00
2018-08-25T10:41:47.684Z,15.40
2018-08-25T10:44:16.281Z,15.70
2018-08-25T10:46:45.014Z,15.60
2018-08-25T10:49:13.658Z,15.70
2018-08-25T10:51:42.194Z,15.90
2018-08-25T10:54:10.785Z,16.20
2018-08-25T10:56:39.305Z,16.20
2018-08-25T10:59:07.830Z,16.00
2018-08-25T11:01:37.290Z,15.70
2018-08-25T11:04:06.928Z,15.50
2018-08-25T11:06:40.358Z,15.50
2018-08-25T11:09:15.573Z,15.60
2018-08-25T11:11:48.684Z,15.60
2018-08-25T11:14:17.240Z,15.80
2018-08-25T11:16:50.985Z,15.90
2018-08-25T11:19:24.629Z,16.10
2018-08-25T11:22:00.705Z,16.30
2018-08-25T11:27:22.303Z,16.60
2018-08-25T11:29:58.007Z,16.70
2018-08-25T11:32:33.891Z,16.70
2018-08-25T11:35:06.510Z,16.50
2018-08-25T11:37:42.613Z,16.10
2018-08-25T11:40:26.824Z,15.90
2018-08-25T11:45:48.195Z,15.60
2018-08-25T11:48:23.989Z,15.20
2018-08-25T11:50:58.106Z,14.90
2018-08-25T11:53:44.184Z,14.60
2018-08-25T11:56:23.976Z,14.10
2018-08-25T11:59:02.547Z,13.20
2018-08-25T12:01:44.572Z,12.40
2018-08-25T12:04:13.108Z,12.00
2018-08-25T12:06:41.997Z,11.70
2018-08-25T12:09:12.172Z,11.60
2018-08-25T12:11:40.907Z,11.60
2018-08-25T12:14:09.450Z,11.70
2018-08-25T12:16:38.068Z,11.80
2018-08-25T12:19:06.677Z,11.90
2018-08-25T12:21:35.176Z,12.00
2018-08-25T12:24:03.755Z,12.10
2018-08-25T12:26:32.339Z,12.20
2018-08-25T12:29:00.876Z,12.40
2018-08-25T12:31:29.414Z,12.60
2018-08-25T12:33:57.936Z,12.60
2018-08-25T12:36:28.022Z,12.30
2018-08-25T12:38:56.568Z,12.00
2018-08-25T12:41:25.086Z,11.70
2018-08-25T12:43:53.829Z,11.30
2018-08-25T12:46:22.387Z,11.00
2018-08-25T12:48:51.277Z,10.90
2018-08-25T12:51:20.233Z,10.90
2018-08-25T12:53:50.681Z,10.90
2018-08-25T12:56:19.619Z,11.00
2018-08-25T12:58:48.179Z,11.10
2018-08-25T13:01:18.273Z,11.30
2018-08-25T13:03:49.329Z,11.70
2018-08-25T13:06:20.503Z,12.00
2018-08-25T13:08:50.696Z,12.40
2018-08-25T13:11:20.496Z,12.70
2018-08-25T13:13:50.004Z,12.90
2018-08-25T13:16:19.853Z,13.30
2018-08-25T13:21:14.345Z,13.50
2018-08-25T13:23:44.084Z,13.70
2018-08-25T13:26:14.978Z,13.70
2018-08-25T13:28:44.268Z,13.60
2018-08-25T13:31:15.006Z,13.50
2018-08-25T13:33:46.817Z,13.50
2018-08-25T13:36:17.618Z,13.50
2018-08-25T13:38:46.565Z,13.50
2018-08-25T13:41:15.514Z,13.50
2018-08-25T13:43:44.771Z,13.50
2018-08-25T13:46:13.642Z,13.60
2018-08-25T13:48:43.284Z,13.60
2018-08-25T13:51:13.761Z,13.70
2018-08-25T13:53:42.314Z,13.80
2018-08-25T13:56:10.946Z,14.10
2018-08-25T13:58:39.614Z,14.30
2018-08-25T14:01:08.397Z,14.50
2018-08-25T14:03:36.965Z,14.70
2018-08-25T14:06:05.478Z,15.00
2018-08-25T14:08:34.043Z,15.50
2018-08-25T14:11:03.384Z,15.70
2018-08-25T14:13:31.912Z,15.90
2018-08-25T14:16:00.528Z,16.10
2018-08-25T14:18:29.125Z,16.40
2018-08-25T14:20:57.942Z,16.40
2018-08-25T14:23:26.612Z,16.60
2018-08-25T14:25:55.377Z,16.90
2018-08-25T14:28:23.958Z,17.00
2018-08-25T14:30:52.492Z,17.30
2018-08-25T14:33:21.185Z,17.30
2018-08-25T14:35:50.279Z,17.30
2018-08-25T14:38:18.911Z,17.00
2018-08-25T14:40:47.424Z,16.60
2018-08-25T14:43:17.466Z,16.30
2018-08-25T14:45:46.072Z,15.80
2018-08-25T14:48:15.405Z,15.50
2018-08-25T14:50:44.106Z,15.30
2018-08-25T14:53:26.604Z,15.20
2018-08-25T14:55:58.961Z,15.30
2018-08-25T15:01:25.569Z,15.70
2018-08-25T15:04:00.004Z,16.00
2018-08-25T15:06:37.527Z,16.40
2018-08-25T15:09:16.017Z,16.30
2018-08-25T15:14:26.706Z,15.90
2018-08-25T15:17:03.375Z,15.70
2018-08-25T15:19:37.191Z,15.50
2018-08-25T15:22:17.274Z,15.30
2018-08-25T15:24:53.278Z,15.20
2018-08-25T15:27:28.525Z,15.20
2018-08-25T15:30:01.782Z,15.20
2018-08-25T15:32:34.918Z,15.40
2018-08-25T15:35:06.167Z,15.40
2018-08-25T15:37:38.143Z,15.40
2018-08-25T15:40:11.503Z,15.30
2018-08-25T15:42:43.221Z,15.30
2018-08-25T15:45:14.822Z,15.20
2018-08-25T15:47:45.964Z,15.20
2018-08-25T15:50:14.942Z,14.90
2018-08-25T15:52:43.488Z,14.40
2018-08-25T15:55:12.769Z,14.00
2018-08-25T15:57:41.746Z,13.60
2018-08-25T16:00:11.202Z,13.50
2018-08-25T16:02:40.185Z,13.40
2018-08-25T16:05:08.782Z,13.40
2018-08-25T16:07:37.683Z,13.40
2018-08-25T16:10:06.923Z,13.50
2018-08-25T16:12:35.790Z,13.50
2018-08-25T16:15:04.403Z,13.60
2018-08-25T16:17:32.922Z,13.60
2018-08-25T16:20:01.600Z,13.60
2018-08-25T16:22:30.162Z,13.70
2018-08-25T16:24:58.937Z,13.70
2018-08-25T16:27:27.681Z,13.60
2018-08-25T16:29:56.329Z,13.60
2018-08-25T16:32:24.877Z,13.50
2018-08-25T16:34:53.444Z,13.40
2018-08-25T16:37:21.976Z,13.30
2018-08-25T16:39:50.469Z,13.30
2018-08-25T16:42:19.013Z,13.40
2018-08-25T16:44:47.523Z,13.50
2018-08-25T16:47:16.061Z,13.60
2018-08-25T16:49:44.606Z,13.70
2018-08-25T16:52:13.155Z,13.70
2018-08-25T16:54:42.119Z,13.70
2018-08-25T16:57:15.151Z,13.60
2018-08-25T16:59:43.685Z,13.50
2018-08-25T17:02:12.344Z,13.40
2018-08-25T17:04:40.781Z,13.30
2018-08-25T17:07:09.331Z,13.20
2018-08-25T17:09:37.863Z,12.90
2018-08-25T17:12:06.562Z,12.80
2018-08-25T17:14:35.133Z,12.60
2018-08-25T17:17:05.198Z,12.50
2018-08-25T17:19:33.760Z,12.40
2018-08-25T17:22:05.987Z,12.30
2018-08-25T17:24:34.592Z,12.30
2018-08-25T17:27:03.135Z,12.30
2018-08-25T17:29:31.679Z,12.30
2018-08-25T17:32:00.257Z,12.20
2018-08-25T17:34:29.381Z,12.20
2018-08-25T17:36:58.144Z,12.20
2018-08-25T17:39:26.656Z,12.20
2018-08-25T17:41:55.232Z,12.20
2018-08-25T17:44:23.838Z,12.10
2018-08-25T17:46:52.449Z,12.10
2018-08-25T17:49:21.008Z,12.20
2018-08-25T17:51:49.590Z,12.20
2018-08-25T17:54:18.118Z,12.20
2018-08-25T17:56:46.719Z,12.20
2018-08-25T17:59:16.098Z,12.20
2018-08-25T18:01:44.719Z,12.20
2018-08-25T18:04:13.270Z,12.20
2018-08-25T18:06:41.860Z,12.20
2018-08-25T18:09:10.438Z,11.80
2018-08-25T18:11:38.971Z,11.60
2018-08-25T18:14:07.561Z,11.30
2018-08-25T18:16:36.098Z,11.00
2018-08-25T18:19:05.159Z,10.90
2018-08-25T18:21:33.730Z,10.90
2018-08-25T18:24:02.307Z,10.80
2018-08-25T18:26:30.838Z,10.80
2018-08-25T18:28:59.423Z,10.70
2018-08-25T18:31:27.944Z,10.70
2018-08-25T18:33:57.717Z,10.70
2018-08-25T18:36:26.277Z,10.70
2018-08-25T18:38:54.837Z,10.70
2018-08-25T18:41:23.351Z,10.70
2018-08-25T18:43:51.941Z,10.70
2018-08-25T18:46:20.517Z,10.70
2018-08-25T18:48:49.038Z,10.60
2018-08-25T18:51:17.597Z,10.50
2018-08-25T18:53:46.125Z,10.50
2018-08-25T18:56:14.680Z,10.60
2018-08-25T18:58:43.234Z,10.60
2018-08-25T19:01:11.798Z,10.70
2018-08-25T19:03:40.400Z,10.70
2018-08-25T19:06:09.029Z,10.90
2018-08-25T19:08:37.643Z,11.00
2018-08-25T19:11:06.160Z,11.10
2018-08-25T19:13:34.738Z,11.20
2018-08-25T19:16:03.287Z,11.20
2018-08-25T19:18:31.846Z,11.30
2018-08-25T19:21:00.396Z,11.30
2018-08-25T19:23:28.888Z,11.30
2018-08-25T19:25:57.435Z,11.40
2018-08-25T19:28:25.975Z,11.40
2018-08-25T19:30:54.517Z,11.40
2018-08-25T19:33:23.085Z,11.40
2018-08-25T19:35:51.588Z,11.40
2018-08-25T19:38:20.120Z,11.50
2018-08-25T19:40:48.841Z,11.50
2018-08-25T19:43:17.437Z,11.40
2018-08-25T19:45:45.951Z,11.10
2018-08-25T19:48:14.548Z,10.90
2018-08-25T19:50:43.096Z,10.80
2018-08-25T19:53:11.832Z,10.70
2018-08-25T19:55:40.339Z,10.70
2018-08-25T19:58:08.890Z,10.60
2018-08-25T20:00:37.469Z,10.60
2018-08-25T20:03:06.102Z,10.60
2018-08-25T20:05:34.883Z,10.60
2018-08-25T20:08:03.217Z,10.50
2018-08-25T20:10:31.801Z,10.50
2018-08-25T20:13:00.467Z,10.50
2018-08-25T20:15:29.023Z,10.50
2018-08-25T20:17:57.629Z,10.40
2018-08-25T20:20:26.251Z,10.30
2018-08-25T20:22:54.760Z,10.20
2018-08-25T20:25:23.327Z,10.20
2018-08-25T20:27:51.929Z,10.30
2018-08-25T20:30:20.548Z,10.40
2018-08-25T20:32:49.056Z,10.40
2018-08-25T20:35:17.589Z,10.50
2018-08-25T20:37:46.117Z,10.60
2018-08-25T20:40:14.761Z,10.70
2018-08-25T20:42:43.276Z,10.70
2018-08-25T20:45:11.836Z,10.50
2018-08-25T20:47:40.428Z,10.40
2018-08-25T20:50:09.000Z,10.30
2018-08-25T20:52:37.640Z,10.30
2018-08-25T20:55:06.468Z,10.40
2018-08-25T20:57:35.188Z,10.30
2018-08-25T21:00:04.103Z,10.40
2018-08-25T21:02:32.663Z,10.40
2018-08-25T21:05:01.216Z,10.30
2018-08-25T21:07:29.849Z,10.20
2018-08-25T21:09:58.404Z,10.10
2018-08-25T21:12:26.920Z,10.00
2018-08-25T21:14:55.460Z,9.80
2018-08-25T21:17:23.980Z,9.80
2018-08-25T21:19:52.517Z,9.70
2018-08-25T21:22:21.099Z,9.60
2018-08-25T21:24:56.208Z,9.50
2018-08-25T21:27:24.714Z,9.30
2018-08-25T21:29:53.305Z,9.20
2018-08-25T21:32:21.855Z,9.10
2018-08-25T21:34:50.355Z,9.00
2018-08-25T21:37:18.946Z,8.90
2018-08-25T21:39:47.500Z,8.80
2018-08-25T21:42:16.075Z,8.80
2018-08-25T21:44:45.150Z,8.70
2018-08-25T21:47:13.663Z,8.70
2018-08-25T21:49:42.419Z,8.70
2018-08-25T21:52:11.922Z,8.70
2018-08-25T21:54:40.725Z,8.80
2018-08-25T21:57:09.288Z,8.80
2018-08-25T21:59:38.973Z,8.70
2018-08-25T22:02:07.880Z,8.70
2018-08-25T22:04:36.380Z,8.70
2018-08-25T22:07:05.024Z,8.70
2018-08-25T22:09:33.746Z,8.70
2018-08-25T22:12:02.291Z,8.70
2018-08-25T22:14:30.860Z,8.70
2018-08-25T22:17:00.580Z,8.70
2018-08-25T22:19:29.304Z,8.70
2018-08-25T22:21:59.442Z,8.90
2018-08-25T22:24:28.000Z,9.00
2018-08-25T22:26:56.555Z,9.10
2018-08-25T22:29:25.064Z,9.30
2018-08-25T22:31:59.904Z,9.40
2018-08-25T22:34:29.682Z,9.40
2018-08-25T22:37:00.203Z,9.40
2018-08-25T22:39:30.444Z,9.40
2018-08-25T22:41:59.012Z,9.40
2018-08-25T22:44:27.585Z,9.30
2018-08-25T22:46:56.099Z,9.30
2018-08-25T22:49:24.664Z,9.30
2018-08-25T22:51:53.218Z,9.30
2018-08-25T22:54:21.750Z,9.40
2018-08-25T22:56:50.719Z,9.40
2018-08-25T22:59:19.630Z,9.40
2018-08-25T23:01:48.175Z,9.50
2018-08-25T23:04:16.817Z,9.50
2018-08-25T23:06:45.459Z,9.40
2018-08-25T23:09:14.033Z,9.40
2018-08-25T23:11:42.674Z,9.20
2018-08-25T23:14:11.624Z,9.20
2018-08-25T23:16:40.153Z,9.10
2018-08-25T23:19:08.940Z,9.00
2018-08-25T23:21:37.499Z,8.90
2018-08-25T23:24:06.256Z,8.90
2018-08-25T23:26:34.776Z,8.80
2018-08-25T23:29:03.370Z,8.80
2018-08-25T23:31:31.872Z,8.80
2018-08-25T23:34:00.543Z,8.80
2018-08-25T23:36:29.080Z,8.90
2018-08-25T23:38:57.592Z,8.90
2018-08-25T23:41:26.140Z,8.90
2018-08-25T23:43:54.692Z,8.90
2018-08-25T23:46:23.273Z,8.90
2018-08-25T23:48:51.756Z,8.90
2018-08-25T23:51:20.262Z,9.00
2018-08-25T23:53:48.800Z,9.00
2018-08-25T23:56:17.338Z,8.90
2018-08-25T23:58:45.840Z,8.90
